sensor_id;sensor_type;location;lat;lon;timestamp;P1;durP1;ratioP1;P2;durP2;ratioP2
44270;SDS011;29963;44.594;11.368;2023-06-24T00:01:48;12.40;;;7.00;;
44270;SDS011;29963;44.594;11.368;2023-06-24T00:04:14;9.13;;;6.57;;
44270;SDS011;29963;44.594;11.368;2023-06-24T00:06:41;10.05;;;6.50;;
44270;SDS011;29963;44.594;11.368;2023-06-24T00:09:07;10.55;;;7.80;;
44270;SDS011;29963;44.594;11.368;2023-06-24T00:11:33;10.95;;;7.68;;
44270;SDS011;29963;44.594;11.368;2023-06-24T00:13:58;16.40;;;8.05;;
44270;SDS011;29963;44.594;11.368;2023-06-24T00:16:24;10.80;;;7.25;;
44270;SDS011;29963;44.594;11.368;2023-06-24T00:18:55;8.43;;;7.18;;
44270;SDS011;29963;44.594;11.368;2023-06-24T00:21:26;11.68;;;7.72;;
44270;SDS011;29963;44.594;11.368;2023-06-24T00:23:57;9.82;;;8.10;;
44270;SDS011;29963;44.594;11.368;2023-06-24T00:26:23;12.90;;;9.23;;
44270;SDS011;29963;44.594;11.368;2023-06-24T00:28:49;12.65;;;8.98;;
44270;SDS011;29963;44.594;11.368;2023-06-24T00:31:15;15.63;;;8.77;;
44270;SDS011;29963;44.594;11.368;2023-06-24T00:33:43;11.15;;;9.13;;
44270;SDS011;29963;44.594;11.368;2023-06-24T00:36:09;9.65;;;8.63;;
44270;SDS011;29963;44.594;11.368;2023-06-24T00:38:36;10.70;;;8.55;;
44270;SDS011;29963;44.594;11.368;2023-06-24T00:41:02;13.10;;;10.18;;
44270;SDS011;29963;44.594;11.368;2023-06-24T00:43:29;13.05;;;8.68;;
44270;SDS011;29963;44.594;11.368;2023-06-24T00:45:55;16.60;;;9.23;;
44270;SDS011;29963;44.594;11.368;2023-06-24T00:48:21;11.25;;;8.43;;
44270;SDS011;29963;44.594;11.368;2023-06-24T00:50:47;14.32;;;9.25;;
44270;SDS011;29963;44.594;11.368;2023-06-24T00:53:14;10.15;;;8.43;;
44270;SDS011;29963;44.594;11.368;2023-06-24T00:55:43;10.38;;;8.55;;
44270;SDS011;29963;44.594;11.368;2023-06-24T00:58:12;8.82;;;7.85;;
44270;SDS011;29963;44.594;11.368;2023-06-24T01:00:41;13.82;;;9.18;;
44270;SDS011;29963;44.594;11.368;2023-06-24T01:03:08;11.52;;;9.43;;
44270;SDS011;29963;44.594;11.368;2023-06-24T01:05:39;16.80;;;9.15;;
44270;SDS011;29963;44.594;11.368;2023-06-24T01:08:06;12.10;;;9.25;;
44270;SDS011;29963;44.594;11.368;2023-06-24T01:10:32;12.35;;;9.65;;
44270;SDS011;29963;44.594;11.368;2023-06-24T01:12:58;12.98;;;9.35;;
44270;SDS011;29963;44.594;11.368;2023-06-24T01:15:24;12.15;;;9.75;;
44270;SDS011;29963;44.594;11.368;2023-06-24T01:18:12;13.98;;;10.57;;
44270;SDS011;29963;44.594;11.368;2023-06-24T01:32:56;12.13;;;10.25;;
44270;SDS011;29963;44.594;11.368;2023-06-24T01:35:11;12.45;;;11.00;;
44270;SDS011;29963;44.594;11.368;2023-06-24T01:37:45;16.13;;;12.48;;
44270;SDS011;29963;44.594;11.368;2023-06-24T01:42:52;17.20;;;11.65;;
44270;SDS011;29963;44.594;11.368;2023-06-24T01:45:21;13.00;;;11.73;;
44270;SDS011;29963;44.594;11.368;2023-06-24T01:47:51;12.68;;;11.23;;
44270;SDS011;29963;44.594;11.368;2023-06-24T01:50:24;15.15;;;11.80;;
44270;SDS011;29963;44.594;11.368;2023-06-24T01:52:51;17.30;;;12.02;;
44270;SDS011;29963;44.594;11.368;2023-06-24T01:55:18;14.18;;;11.45;;
44270;SDS011;29963;44.594;11.368;2023-06-24T01:57:45;12.55;;;11.25;;
44270;SDS011;29963;44.594;11.368;2023-06-24T02:00:14;17.08;;;12.23;;
44270;SDS011;29963;44.594;11.368;2023-06-24T02:02:41;12.80;;;11.30;;
44270;SDS011;29963;44.594;11.368;2023-06-24T02:05:13;13.25;;;10.82;;
44270;SDS011;29963;44.594;11.368;2023-06-24T02:07:42;14.27;;;12.77;;
44270;SDS011;29963;44.594;11.368;2023-06-24T02:10:09;16.35;;;11.73;;
44270;SDS011;29963;44.594;11.368;2023-06-24T02:12:35;24.08;;;12.63;;
44270;SDS011;29963;44.594;11.368;2023-06-24T02:15:01;17.25;;;11.90;;
44270;SDS011;29963;44.594;11.368;2023-06-24T02:17:29;13.80;;;10.73;;
44270;SDS011;29963;44.594;11.368;2023-06-24T02:19:55;14.20;;;12.70;;
44270;SDS011;29963;44.594;11.368;2023-06-24T02:22:22;14.50;;;11.82;;
44270;SDS011;29963;44.594;11.368;2023-06-24T02:24:48;20.88;;;12.43;;
44270;SDS011;29963;44.594;11.368;2023-06-24T02:27:15;13.27;;;11.52;;
44270;SDS011;29963;44.594;11.368;2023-06-24T02:29:41;19.80;;;12.60;;
44270;SDS011;29963;44.594;11.368;2023-06-24T02:32:08;17.15;;;12.18;;
44270;SDS011;29963;44.594;11.368;2023-06-24T02:34:34;16.50;;;12.15;;
44270;SDS011;29963;44.594;11.368;2023-06-24T02:37:00;15.48;;;10.95;;
44270;SDS011;29963;44.594;11.368;2023-06-24T02:39:26;15.82;;;11.73;;
44270;SDS011;29963;44.594;11.368;2023-06-24T02:41:52;13.27;;;10.95;;
44270;SDS011;29963;44.594;11.368;2023-06-24T02:44:18;13.65;;;11.43;;
44270;SDS011;29963;44.594;11.368;2023-06-24T02:46:44;13.75;;;11.38;;
44270;SDS011;29963;44.594;11.368;2023-06-24T02:49:12;18.50;;;10.93;;
44270;SDS011;29963;44.594;11.368;2023-06-24T02:51:41;14.25;;;10.88;;
44270;SDS011;29963;44.594;11.368;2023-06-24T02:54:07;13.82;;;10.68;;
44270;SDS011;29963;44.594;11.368;2023-06-24T02:56:35;15.63;;;9.98;;
44270;SDS011;29963;44.594;11.368;2023-06-24T02:59:06;12.70;;;10.77;;
44270;SDS011;29963;44.594;11.368;2023-06-24T03:01:32;14.68;;;11.20;;
44270;SDS011;29963;44.594;11.368;2023-06-24T03:04:03;14.45;;;10.20;;
44270;SDS011;29963;44.594;11.368;2023-06-24T03:06:30;17.73;;;10.52;;
44270;SDS011;29963;44.594;11.368;2023-06-24T03:08:56;18.15;;;11.38;;
44270;SDS011;29963;44.594;11.368;2023-06-24T03:11:22;11.95;;;9.73;;
44270;SDS011;29963;44.594;11.368;2023-06-24T03:13:48;11.98;;;10.23;;
44270;SDS011;29963;44.594;11.368;2023-06-24T03:16:14;11.48;;;9.98;;
44270;SDS011;29963;44.594;11.368;2023-06-24T03:18:43;13.50;;;10.70;;
44270;SDS011;29963;44.594;11.368;2023-06-24T03:21:09;18.42;;;12.00;;
44270;SDS011;29963;44.594;11.368;2023-06-24T03:23:35;11.95;;;10.13;;
44270;SDS011;29963;44.594;11.368;2023-06-24T03:26:01;16.27;;;10.75;;
44270;SDS011;29963;44.594;11.368;2023-06-24T03:28:45;13.90;;;10.90;;
44270;SDS011;29963;44.594;11.368;2023-06-24T03:31:11;22.15;;;11.75;;
44270;SDS011;29963;44.594;11.368;2023-06-24T03:33:40;12.52;;;8.80;;
44270;SDS011;29963;44.594;11.368;2023-06-24T03:36:09;11.20;;;9.48;;
44270;SDS011;29963;44.594;11.368;2023-06-24T03:38:35;13.13;;;9.77;;
44270;SDS011;29963;44.594;11.368;2023-06-24T03:41:01;10.65;;;9.25;;
44270;SDS011;29963;44.594;11.368;2023-06-24T03:43:27;10.38;;;8.85;;
44270;SDS011;29963;44.594;11.368;2023-06-24T03:45:53;11.07;;;9.60;;
44270;SDS011;29963;44.594;11.368;2023-06-24T03:48:18;16.02;;;9.82;;
44270;SDS011;29963;44.594;11.368;2023-06-24T03:50:44;13.82;;;10.13;;
44270;SDS011;29963;44.594;11.368;2023-06-24T03:53:09;17.08;;;10.82;;
44270;SDS011;29963;44.594;11.368;2023-06-24T03:55:35;17.05;;;9.65;;
44270;SDS011;29963;44.594;11.368;2023-06-24T03:58:01;18.33;;;10.30;;
44270;SDS011;29963;44.594;11.368;2023-06-24T04:00:26;14.00;;;9.35;;
44270;SDS011;29963;44.594;11.368;2023-06-24T04:02:52;10.02;;;9.02;;
44270;SDS011;29963;44.594;11.368;2023-06-24T04:05:18;10.43;;;9.40;;
44270;SDS011;29963;44.594;11.368;2023-06-24T04:07:45;16.83;;;9.18;;
44270;SDS011;29963;44.594;11.368;2023-06-24T04:10:15;9.68;;;8.77;;
44270;SDS011;29963;44.594;11.368;2023-06-24T04:12:43;9.82;;;8.15;;
44270;SDS011;29963;44.594;11.368;2023-06-24T04:15:09;10.57;;;9.48;;
44270;SDS011;29963;44.594;11.368;2023-06-24T04:17:35;12.02;;;9.57;;
44270;SDS011;29963;44.594;11.368;2023-06-24T04:20:00;14.23;;;9.02;;
44270;SDS011;29963;44.594;11.368;2023-06-24T04:22:29;16.55;;;8.95;;
44270;SDS011;29963;44.594;11.368;2023-06-24T04:24:54;11.73;;;8.43;;
44270;SDS011;29963;44.594;11.368;2023-06-24T04:27:20;10.77;;;7.15;;
44270;SDS011;29963;44.594;11.368;2023-06-24T04:29:45;9.05;;;7.45;;
44270;SDS011;29963;44.594;11.368;2023-06-24T04:32:11;9.38;;;7.25;;
44270;SDS011;29963;44.594;11.368;2023-06-24T04:34:37;12.05;;;6.90;;
44270;SDS011;29963;44.594;11.368;2023-06-24T04:37:02;9.70;;;6.45;;
44270;SDS011;29963;44.594;11.368;2023-06-24T04:39:31;12.07;;;7.30;;
44270;SDS011;29963;44.594;11.368;2023-06-24T04:41:57;11.63;;;7.25;;
44270;SDS011;29963;44.594;11.368;2023-06-24T04:44:22;14.23;;;8.48;;
44270;SDS011;29963;44.594;11.368;2023-06-24T04:46:48;14.55;;;7.72;;
44270;SDS011;29963;44.594;11.368;2023-06-24T04:49:13;13.02;;;7.40;;
44270;SDS011;29963;44.594;11.368;2023-06-24T04:51:42;15.60;;;6.40;;
44270;SDS011;29963;44.594;11.368;2023-06-24T04:54:08;13.13;;;6.70;;
44270;SDS011;29963;44.594;11.368;2023-06-24T04:56:34;16.73;;;6.80;;
44270;SDS011;29963;44.594;11.368;2023-06-24T04:59:00;12.65;;;7.07;;
44270;SDS011;29963;44.594;11.368;2023-06-24T05:01:26;8.50;;;6.30;;
44270;SDS011;29963;44.594;11.368;2023-06-24T05:03:51;14.60;;;7.32;;
44270;SDS011;29963;44.594;11.368;2023-06-24T05:06:17;11.82;;;7.80;;
44270;SDS011;29963;44.594;11.368;2023-06-24T05:08:42;14.88;;;8.73;;
44270;SDS011;29963;44.594;11.368;2023-06-24T05:11:08;10.65;;;7.43;;
44270;SDS011;29963;44.594;11.368;2023-06-24T05:13:33;12.80;;;7.65;;
44270;SDS011;29963;44.594;11.368;2023-06-24T05:15:59;10.68;;;7.90;;
44270;SDS011;29963;44.594;11.368;2023-06-24T05:18:25;11.68;;;9.05;;
44270;SDS011;29963;44.594;11.368;2023-06-24T05:20:50;10.55;;;9.00;;
44270;SDS011;29963;44.594;11.368;2023-06-24T05:23:16;13.18;;;8.98;;
44270;SDS011;29963;44.594;11.368;2023-06-24T05:25:41;9.60;;;7.90;;
44270;SDS011;29963;44.594;11.368;2023-06-24T05:28:07;13.60;;;8.68;;
44270;SDS011;29963;44.594;11.368;2023-06-24T05:30:32;14.02;;;7.78;;
44270;SDS011;29963;44.594;11.368;2023-06-24T05:32:58;12.35;;;8.88;;
44270;SDS011;29963;44.594;11.368;2023-06-24T05:35:24;11.93;;;8.75;;
44270;SDS011;29963;44.594;11.368;2023-06-24T05:37:49;13.15;;;8.77;;
44270;SDS011;29963;44.594;11.368;2023-06-24T05:40:15;11.15;;;8.48;;
44270;SDS011;29963;44.594;11.368;2023-06-24T05:42:41;10.30;;;9.27;;
44270;SDS011;29963;44.594;11.368;2023-06-24T05:45:07;15.23;;;10.23;;
44270;SDS011;29963;44.594;11.368;2023-06-24T05:47:36;12.10;;;9.25;;
44270;SDS011;29963;44.594;11.368;2023-06-24T05:50:03;12.00;;;9.60;;
44270;SDS011;29963;44.594;11.368;2023-06-24T05:52:29;22.40;;;10.70;;
44270;SDS011;29963;44.594;11.368;2023-06-24T05:54:54;11.35;;;10.05;;
44270;SDS011;29963;44.594;11.368;2023-06-24T05:57:20;15.75;;;10.95;;
44270;SDS011;29963;44.594;11.368;2023-06-24T05:59:46;11.70;;;10.43;;
44270;SDS011;29963;44.594;11.368;2023-06-24T06:02:11;11.38;;;10.25;;
44270;SDS011;29963;44.594;11.368;2023-06-24T06:04:38;11.25;;;9.50;;
44270;SDS011;29963;44.594;11.368;2023-06-24T06:07:04;12.63;;;9.40;;
44270;SDS011;29963;44.594;11.368;2023-06-24T06:09:29;12.18;;;9.98;;
44270;SDS011;29963;44.594;11.368;2023-06-24T06:11:55;13.77;;;10.13;;
44270;SDS011;29963;44.594;11.368;2023-06-24T06:14:21;12.00;;;9.75;;
44270;SDS011;29963;44.594;11.368;2023-06-24T06:16:46;11.10;;;9.68;;
44270;SDS011;29963;44.594;11.368;2023-06-24T06:19:12;13.45;;;11.40;;
44270;SDS011;29963;44.594;11.368;2023-06-24T06:21:37;13.90;;;10.52;;
44270;SDS011;29963;44.594;11.368;2023-06-24T06:24:03;11.73;;;10.32;;
44270;SDS011;29963;44.594;11.368;2023-06-24T06:26:29;11.25;;;9.65;;
44270;SDS011;29963;44.594;11.368;2023-06-24T06:28:55;13.23;;;10.25;;
44270;SDS011;29963;44.594;11.368;2023-06-24T06:31:20;13.73;;;10.82;;
44270;SDS011;29963;44.594;11.368;2023-06-24T06:33:46;12.40;;;10.25;;
44270;SDS011;29963;44.594;11.368;2023-06-24T06:36:12;11.90;;;10.65;;
44270;SDS011;29963;44.594;11.368;2023-06-24T06:38:38;10.70;;;9.55;;
44270;SDS011;29963;44.594;11.368;2023-06-24T06:41:05;10.27;;;8.90;;
44270;SDS011;29963;44.594;11.368;2023-06-24T06:43:30;12.00;;;9.63;;
44270;SDS011;29963;44.594;11.368;2023-06-24T06:45:57;13.60;;;9.80;;
44270;SDS011;29963;44.594;11.368;2023-06-24T06:48:22;13.13;;;9.05;;
44270;SDS011;29963;44.594;11.368;2023-06-24T06:50:48;9.65;;;7.40;;
44270;SDS011;29963;44.594;11.368;2023-06-24T06:53:14;11.13;;;8.10;;
44270;SDS011;29963;44.594;11.368;2023-06-24T06:55:40;12.07;;;8.85;;
44270;SDS011;29963;44.594;11.368;2023-06-24T06:58:07;11.63;;;9.18;;
44270;SDS011;29963;44.594;11.368;2023-06-24T07:00:33;9.40;;;7.75;;
44270;SDS011;29963;44.594;11.368;2023-06-24T07:02:58;10.25;;;6.50;;
44270;SDS011;29963;44.594;11.368;2023-06-24T07:05:24;8.55;;;6.78;;
44270;SDS011;29963;44.594;11.368;2023-06-24T07:07:50;11.55;;;6.97;;
44270;SDS011;29963;44.594;11.368;2023-06-24T07:10:15;7.53;;;6.45;;
44270;SDS011;29963;44.594;11.368;2023-06-24T07:12:44;9.57;;;7.20;;
44270;SDS011;29963;44.594;11.368;2023-06-24T07:15:10;6.78;;;5.65;;
44270;SDS011;29963;44.594;11.368;2023-06-24T07:17:35;8.13;;;5.78;;
44270;SDS011;29963;44.594;11.368;2023-06-24T07:20:01;11.07;;;6.57;;
44270;SDS011;29963;44.594;11.368;2023-06-24T07:22:27;10.52;;;6.88;;
44270;SDS011;29963;44.594;11.368;2023-06-24T07:24:55;9.68;;;5.82;;
44270;SDS011;29963;44.594;11.368;2023-06-24T07:27:21;7.03;;;5.85;;
44270;SDS011;29963;44.594;11.368;2023-06-24T07:29:47;11.68;;;6.45;;
44270;SDS011;29963;44.594;11.368;2023-06-24T07:32:12;7.93;;;5.47;;
44270;SDS011;29963;44.594;11.368;2023-06-24T07:34:38;9.75;;;5.82;;
44270;SDS011;29963;44.594;11.368;2023-06-24T07:37:03;7.90;;;5.68;;
44270;SDS011;29963;44.594;11.368;2023-06-24T07:39:29;6.68;;;5.20;;
44270;SDS011;29963;44.594;11.368;2023-06-24T07:41:55;8.07;;;5.22;;
44270;SDS011;29963;44.594;11.368;2023-06-24T07:44:20;17.55;;;6.10;;
44270;SDS011;29963;44.594;11.368;2023-06-24T07:46:46;11.88;;;4.70;;
44270;SDS011;29963;44.594;11.368;2023-06-24T07:49:13;5.82;;;4.72;;
44270;SDS011;29963;44.594;11.368;2023-06-24T07:51:39;8.05;;;4.95;;
44270;SDS011;29963;44.594;11.368;2023-06-24T07:54:04;6.28;;;4.70;;
44270;SDS011;29963;44.594;11.368;2023-06-24T07:56:30;5.22;;;3.92;;
44270;SDS011;29963;44.594;11.368;2023-06-24T07:58:55;8.15;;;4.93;;
44270;SDS011;29963;44.594;11.368;2023-06-24T08:01:21;7.00;;;4.50;;
44270;SDS011;29963;44.594;11.368;2023-06-24T08:03:46;7.90;;;4.30;;
44270;SDS011;29963;44.594;11.368;2023-06-24T08:06:12;7.30;;;4.38;;
44270;SDS011;29963;44.594;11.368;2023-06-24T08:08:38;6.10;;;3.70;;
44270;SDS011;29963;44.594;11.368;2023-06-24T08:11:03;6.45;;;4.30;;
44270;SDS011;29963;44.594;11.368;2023-06-24T08:13:29;6.88;;;4.03;;
44270;SDS011;29963;44.594;11.368;2023-06-24T08:15:54;4.13;;;3.72;;
44270;SDS011;29963;44.594;11.368;2023-06-24T08:18:20;4.72;;;3.85;;
44270;SDS011;29963;44.594;11.368;2023-06-24T08:20:46;12.38;;;3.67;;
44270;SDS011;29963;44.594;11.368;2023-06-24T08:23:11;3.42;;;3.13;;
44270;SDS011;29963;44.594;11.368;2023-06-24T08:25:37;5.07;;;3.40;;
44270;SDS011;29963;44.594;11.368;2023-06-24T08:28:03;13.07;;;3.25;;
44270;SDS011;29963;44.594;11.368;2023-06-24T08:30:28;4.88;;;3.42;;
44270;SDS011;29963;44.594;11.368;2023-06-24T08:32:55;5.78;;;3.95;;
44270;SDS011;29963;44.594;11.368;2023-06-24T08:35:20;4.55;;;3.72;;
44270;SDS011;29963;44.594;11.368;2023-06-24T08:37:46;5.72;;;3.83;;
44270;SDS011;29963;44.594;11.368;2023-06-24T08:40:11;4.20;;;3.05;;
44270;SDS011;29963;44.594;11.368;2023-06-24T08:42:37;5.72;;;3.20;;
44270;SDS011;29963;44.594;11.368;2023-06-24T08:45:03;6.53;;;4.13;;
44270;SDS011;29963;44.594;11.368;2023-06-24T08:47:29;3.97;;;3.33;;
44270;SDS011;29963;44.594;11.368;2023-06-24T08:50:00;5.03;;;3.72;;
44270;SDS011;29963;44.594;11.368;2023-06-24T08:52:30;4.43;;;3.03;;
44270;SDS011;29963;44.594;11.368;2023-06-24T08:54:57;5.95;;;3.80;;
44270;SDS011;29963;44.594;11.368;2023-06-24T08:57:24;9.93;;;4.50;;
44270;SDS011;29963;44.594;11.368;2023-06-24T08:59:51;8.82;;;5.88;;
44270;SDS011;29963;44.594;11.368;2023-06-24T09:02:18;12.88;;;9.55;;
44270;SDS011;29963;44.594;11.368;2023-06-24T09:04:44;9.68;;;5.35;;
44270;SDS011;29963;44.594;11.368;2023-06-24T09:07:09;5.28;;;3.83;;
44270;SDS011;29963;44.594;11.368;2023-06-24T09:09:43;4.63;;;3.63;;
44270;SDS011;29963;44.594;11.368;2023-06-24T09:12:13;5.93;;;3.58;;
44270;SDS011;29963;44.594;11.368;2023-06-24T09:14:41;3.95;;;2.65;;
44270;SDS011;29963;44.594;11.368;2023-06-24T09:17:13;4.25;;;3.28;;
44270;SDS011;29963;44.594;11.368;2023-06-24T09:19:38;5.60;;;2.95;;
44270;SDS011;29963;44.594;11.368;2023-06-24T09:22:07;6.57;;;3.05;;
44270;SDS011;29963;44.594;11.368;2023-06-24T09:24:33;6.05;;;3.00;;
44270;SDS011;29963;44.594;11.368;2023-06-24T09:27:02;4.20;;;3.13;;
44270;SDS011;29963;44.594;11.368;2023-06-24T09:29:32;6.22;;;3.25;;
44270;SDS011;29963;44.594;11.368;2023-06-24T09:31:59;4.45;;;3.28;;
44270;SDS011;29963;44.594;11.368;2023-06-24T09:34:25;4.30;;;3.03;;
44270;SDS011;29963;44.594;11.368;2023-06-24T09:36:55;9.27;;;3.50;;
44270;SDS011;29963;44.594;11.368;2023-06-24T09:39:21;4.22;;;3.03;;
44270;SDS011;29963;44.594;11.368;2023-06-24T09:41:58;6.57;;;3.58;;
44270;SDS011;29963;44.594;11.368;2023-06-24T09:44:26;3.95;;;3.05;;
44270;SDS011;29963;44.594;11.368;2023-06-24T09:46:52;3.78;;;2.80;;
44270;SDS011;29963;44.594;11.368;2023-06-24T09:49:18;3.70;;;2.40;;
44270;SDS011;29963;44.594;11.368;2023-06-24T09:51:45;7.82;;;2.85;;
44270;SDS011;29963;44.594;11.368;2023-06-24T09:54:12;4.78;;;2.33;;
44270;SDS011;29963;44.594;11.368;2023-06-24T09:57:11;3.38;;;2.30;;
44270;SDS011;29963;44.594;11.368;2023-06-24T09:59:31;2.65;;;2.45;;
44270;SDS011;29963;44.594;11.368;2023-06-24T10:01:58;3.13;;;2.53;;
44270;SDS011;29963;44.594;11.368;2023-06-24T10:04:25;3.38;;;2.78;;
44270;SDS011;29963;44.594;11.368;2023-06-24T10:06:52;4.30;;;2.75;;
44270;SDS011;29963;44.594;11.368;2023-06-24T10:09:18;8.68;;;3.15;;
44270;SDS011;29963;44.594;11.368;2023-06-24T10:11:45;3.10;;;2.58;;
44270;SDS011;29963;44.594;11.368;2023-06-24T10:14:11;7.25;;;2.60;;
44270;SDS011;29963;44.594;11.368;2023-06-24T10:16:37;5.03;;;2.50;;
44270;SDS011;29963;44.594;11.368;2023-06-24T10:19:03;4.75;;;2.78;;
44270;SDS011;29963;44.594;11.368;2023-06-24T10:21:46;4.25;;;2.78;;
44270;SDS011;29963;44.594;11.368;2023-06-24T10:24:32;5.03;;;2.55;;
44270;SDS011;29963;44.594;11.368;2023-06-24T10:27:40;3.35;;;1.90;;
44270;SDS011;29963;44.594;11.368;2023-06-24T10:29:53;2.53;;;2.28;;
44270;SDS011;29963;44.594;11.368;2023-06-24T10:32:22;3.20;;;2.40;;
44270;SDS011;29963;44.594;11.368;2023-06-24T10:34:55;3.00;;;2.40;;
44270;SDS011;29963;44.594;11.368;2023-06-24T10:37:22;2.75;;;1.98;;
44270;SDS011;29963;44.594;11.368;2023-06-24T10:42:29;4.25;;;2.65;;
44270;SDS011;29963;44.594;11.368;2023-06-24T10:45:01;2.65;;;2.05;;
44270;SDS011;29963;44.594;11.368;2023-06-24T10:47:33;2.65;;;2.20;;
44270;SDS011;29963;44.594;11.368;2023-06-24T10:49:59;4.65;;;2.33;;
44270;SDS011;29963;44.594;11.368;2023-06-24T10:52:25;3.42;;;2.03;;
44270;SDS011;29963;44.594;11.368;2023-06-24T10:54:51;3.05;;;2.13;;
44270;SDS011;29963;44.594;11.368;2023-06-24T10:57:21;2.58;;;2.10;;
44270;SDS011;29963;44.594;11.368;2023-06-24T10:59:49;2.13;;;1.92;;
44270;SDS011;29963;44.594;11.368;2023-06-24T11:02:16;2.92;;;2.00;;
44270;SDS011;29963;44.594;11.368;2023-06-24T11:04:51;5.78;;;2.33;;
44270;SDS011;29963;44.594;11.368;2023-06-24T11:07:19;2.58;;;2.03;;
44270;SDS011;29963;44.594;11.368;2023-06-24T11:09:56;2.40;;;1.90;;
44270;SDS011;29963;44.594;11.368;2023-06-24T11:12:30;5.45;;;2.25;;
44270;SDS011;29963;44.594;11.368;2023-06-24T11:14:58;4.35;;;2.20;;
44270;SDS011;29963;44.594;11.368;2023-06-24T11:17:25;2.90;;;2.60;;
44270;SDS011;29963;44.594;11.368;2023-06-24T11:19:54;3.72;;;2.28;;
44270;SDS011;29963;44.594;11.368;2023-06-24T11:22:22;4.43;;;2.40;;
44270;SDS011;29963;44.594;11.368;2023-06-24T11:24:49;2.65;;;1.92;;
44270;SDS011;29963;44.594;11.368;2023-06-24T11:27:15;4.43;;;1.98;;
44270;SDS011;29963;44.594;11.368;2023-06-24T11:29:40;2.83;;;1.75;;
44270;SDS011;29963;44.594;11.368;2023-06-24T11:32:09;2.83;;;2.10;;
44270;SDS011;29963;44.594;11.368;2023-06-24T11:34:35;5.85;;;1.85;;
44270;SDS011;29963;44.594;11.368;2023-06-24T11:37:12;4.38;;;2.58;;
44270;SDS011;29963;44.594;11.368;2023-06-24T11:39:38;3.25;;;2.22;;
44270;SDS011;29963;44.594;11.368;2023-06-24T11:42:07;2.55;;;1.88;;
44270;SDS011;29963;44.594;11.368;2023-06-24T11:44:34;3.60;;;2.08;;
44270;SDS011;29963;44.594;11.368;2023-06-24T11:47:06;2.63;;;2.40;;
44270;SDS011;29963;44.594;11.368;2023-06-24T11:49:47;4.75;;;3.30;;
44270;SDS011;29963;44.594;11.368;2023-06-24T11:52:13;8.13;;;3.95;;
44270;SDS011;29963;44.594;11.368;2023-06-24T11:54:42;3.25;;;2.55;;
44270;SDS011;29963;44.594;11.368;2023-06-24T11:57:08;3.55;;;2.50;;
44270;SDS011;29963;44.594;11.368;2023-06-24T11:59:34;9.35;;;3.58;;
44270;SDS011;29963;44.594;11.368;2023-06-24T12:02:00;4.07;;;2.50;;
44270;SDS011;29963;44.594;11.368;2023-06-24T12:04:29;5.13;;;2.22;;
44270;SDS011;29963;44.594;11.368;2023-06-24T12:06:56;4.03;;;2.40;;
44270;SDS011;29963;44.594;11.368;2023-06-24T12:09:22;3.80;;;2.65;;
44270;SDS011;29963;44.594;11.368;2023-06-24T12:11:48;7.65;;;2.50;;
44270;SDS011;29963;44.594;11.368;2023-06-24T12:14:14;2.75;;;2.15;;
44270;SDS011;29963;44.594;11.368;2023-06-24T12:16:40;5.88;;;1.83;;
44270;SDS011;29963;44.594;11.368;2023-06-24T12:19:06;2.25;;;2.03;;
44270;SDS011;29963;44.594;11.368;2023-06-24T12:21:32;6.35;;;2.10;;
44270;SDS011;29963;44.594;11.368;2023-06-24T12:23:58;1.85;;;1.70;;
44270;SDS011;29963;44.594;11.368;2023-06-24T12:26:24;2.30;;;1.90;;
44270;SDS011;29963;44.594;11.368;2023-06-24T12:28:50;4.85;;;3.70;;
44270;SDS011;29963;44.594;11.368;2023-06-24T12:31:19;4.53;;;2.80;;
44270;SDS011;29963;44.594;11.368;2023-06-24T12:33:44;1.98;;;1.60;;
44270;SDS011;29963;44.594;11.368;2023-06-24T12:36:10;2.22;;;1.95;;
44270;SDS011;29963;44.594;11.368;2023-06-24T12:38:35;4.05;;;1.77;;
44270;SDS011;29963;44.594;11.368;2023-06-24T12:41:01;3.38;;;1.90;;
44270;SDS011;29963;44.594;11.368;2023-06-24T12:43:27;2.10;;;1.65;;
44270;SDS011;29963;44.594;11.368;2023-06-24T12:45:52;2.20;;;1.88;;
44270;SDS011;29963;44.594;11.368;2023-06-24T12:48:18;4.93;;;1.67;;
44270;SDS011;29963;44.594;11.368;2023-06-24T12:50:44;3.83;;;1.48;;
44270;SDS011;29963;44.594;11.368;2023-06-24T12:53:09;1.67;;;1.58;;
44270;SDS011;29963;44.594;11.368;2023-06-24T12:55:36;3.38;;;2.00;;
44270;SDS011;29963;44.594;11.368;2023-06-24T12:58:01;2.97;;;1.75;;
44270;SDS011;29963;44.594;11.368;2023-06-24T13:00:27;6.28;;;4.65;;
44270;SDS011;29963;44.594;11.368;2023-06-24T13:02:53;4.57;;;2.80;;
44270;SDS011;29963;44.594;11.368;2023-06-24T13:05:19;2.60;;;1.77;;
44270;SDS011;29963;44.594;11.368;2023-06-24T13:07:44;2.42;;;1.98;;
44270;SDS011;29963;44.594;11.368;2023-06-24T13:10:10;1.88;;;1.50;;
44270;SDS011;29963;44.594;11.368;2023-06-24T13:12:36;2.13;;;1.77;;
44270;SDS011;29963;44.594;11.368;2023-06-24T13:15:02;2.47;;;1.70;;
44270;SDS011;29963;44.594;11.368;2023-06-24T13:17:31;1.52;;;1.10;;
44270;SDS011;29963;44.594;11.368;2023-06-24T13:19:57;4.25;;;1.25;;
44270;SDS011;29963;44.594;11.368;2023-06-24T13:22:23;2.22;;;1.33;;
44270;SDS011;29963;44.594;11.368;2023-06-24T13:24:49;3.20;;;1.15;;
44270;SDS011;29963;44.594;11.368;2023-06-24T13:27:15;2.78;;;1.50;;
44270;SDS011;29963;44.594;11.368;2023-06-24T13:29:41;3.30;;;1.25;;
44270;SDS011;29963;44.594;11.368;2023-06-24T13:32:07;1.60;;;1.25;;
44270;SDS011;29963;44.594;11.368;2023-06-24T13:34:33;1.48;;;1.05;;
44270;SDS011;29963;44.594;11.368;2023-06-24T13:36:59;2.83;;;1.35;;
44270;SDS011;29963;44.594;11.368;2023-06-24T13:39:25;6.13;;;1.73;;
44270;SDS011;29963;44.594;11.368;2023-06-24T13:41:52;2.13;;;1.25;;
44270;SDS011;29963;44.594;11.368;2023-06-24T13:44:17;3.10;;;1.30;;
44270;SDS011;29963;44.594;11.368;2023-06-24T13:46:43;6.30;;;4.65;;
44270;SDS011;29963;44.594;11.368;2023-06-24T13:49:09;4.25;;;3.55;;
44270;SDS011;29963;44.594;11.368;2023-06-24T13:51:35;1.67;;;1.40;;
44270;SDS011;29963;44.594;11.368;2023-06-24T13:54:01;4.32;;;1.60;;
44270;SDS011;29963;44.594;11.368;2023-06-24T13:56:27;1.67;;;1.15;;
44270;SDS011;29963;44.594;11.368;2023-06-24T13:58:53;4.03;;;1.10;;
44270;SDS011;29963;44.594;11.368;2023-06-24T14:01:20;2.20;;;1.30;;
44270;SDS011;29963;44.594;11.368;2023-06-24T14:03:46;1.83;;;1.13;;
44270;SDS011;29963;44.594;11.368;2023-06-24T14:06:17;1.38;;;1.27;;
44270;SDS011;29963;44.594;11.368;2023-06-24T14:08:44;1.30;;;1.15;;
44270;SDS011;29963;44.594;11.368;2023-06-24T14:11:09;1.23;;;1.00;;
44270;SDS011;29963;44.594;11.368;2023-06-24T14:13:35;2.15;;;1.65;;
44270;SDS011;29963;44.594;11.368;2023-06-24T14:16:01;1.42;;;1.20;;
44270;SDS011;29963;44.594;11.368;2023-06-24T14:18:28;2.88;;;1.00;;
44270;SDS011;29963;44.594;11.368;2023-06-24T14:20:56;1.38;;;1.15;;
44270;SDS011;29963;44.594;11.368;2023-06-24T14:23:23;1.25;;;1.00;;
44270;SDS011;29963;44.594;11.368;2023-06-24T14:25:50;2.95;;;0.98;;
44270;SDS011;29963;44.594;11.368;2023-06-24T14:28:16;0.80;;;0.80;;
44270;SDS011;29963;44.594;11.368;2023-06-24T14:30:42;1.08;;;0.98;;
44270;SDS011;29963;44.594;11.368;2023-06-24T14:33:08;1.42;;;0.93;;
44270;SDS011;29963;44.594;11.368;2023-06-24T14:35:34;1.45;;;0.70;;
44270;SDS011;29963;44.594;11.368;2023-06-24T14:38:00;1.60;;;1.00;;
44270;SDS011;29963;44.594;11.368;2023-06-24T14:40:26;3.90;;;1.55;;
44270;SDS011;29963;44.594;11.368;2023-06-24T14:42:51;1.45;;;0.80;;